Главная страница
METAR-TAF:

METAR-TAF

Аэропорты :

Международный аэропорт имени Ислама Каримова

Ташкент, Узбекистан

широта: 41-16N, долгота: 069-16E, высота над уровнем моря: 489 м

Текущие метеонаблюдения

Эта сводка был подготовлена 28 минут назад, в 10:00 UTC
Ветер 6 Узел от западный, изменяющийся между южный и северно-северо-западный
Температура 37°C
Влажность 15%
Давление 1000 hPa
Видимость 10 км и более
Нет облачности ниже 1500 м, и нет кучево-дождевой облачности

METAR: UTTT 161000Z 27006KT 180V330 CAVOK 37/06 Q1000 R26R/CLRD70 NOSIG

Время: 15:28 (10:28 UTC)

Прогноз

Эта сводка был подготовлена 5 часа и 28 минут назад, в 05:00 UTC
Прогноз действительный с 16-го 06 UTC до 17-го 06 UTC
Ветер 8 Узел от южный-юго-западный
Видимость 10 км и более
Нет облачности ниже 1500 м, и нет кучево-дождевой облачности
временами
С 16-го 08 UTC до 16-го 14 UTC
Ветер 12 Узел от северный с порывами до 22 Узел

TAF: UTTT 160500Z 1606/1706 21008KT CAVOK TX39/1610Z TEMPO 1608/1614 35012G22KT

Метеонаблюдения и прогнозы для более 4000 аэропортов (сводки METAR и TAF).

Имеющиеся станции представлены на карте желтыми и красными точками.

Чтобы увидеть название станции, наведите на нее мышь.

Затем щелкните, чтобы увидеть метеонаблюдения и метеопрогнозы.

Управление картой: чтобы увеличить масштаб, щелкните зеленые кнопки с черным крестиком; чтобы уменьшить масштаб, щелкните зеленую кнопку с тире; для просмотра соседних карт щелкайте зеленые стрелки.


METAR-TAF: